createdAt,value
2023-02-27T00:01:57.315Z,4.50
2023-02-27T00:04:24.417Z,4.10
2023-02-27T00:06:51.586Z,3.90
2023-02-27T00:09:18.679Z,4.63
2023-02-27T00:11:45.759Z,4.47
2023-02-27T00:14:12.949Z,4.05
2023-02-27T00:16:40.063Z,4.32
2023-02-27T00:19:07.196Z,4.13
2023-02-27T00:21:36.835Z,4.72
2023-02-27T00:24:04.291Z,4.68
2023-02-27T00:26:31.611Z,3.92
2023-02-27T00:28:58.743Z,4.75
2023-02-27T00:31:26.114Z,4.47
2023-02-27T00:33:53.422Z,5.05
2023-02-27T00:36:20.596Z,4.75
2023-02-27T00:38:47.736Z,4.53
2023-02-27T00:41:15.068Z,5.15
2023-02-27T00:43:42.206Z,5.47
2023-02-27T00:46:10.258Z,4.90
2023-02-27T00:48:37.472Z,5.10
2023-02-27T00:51:04.692Z,5.50
2023-02-27T00:53:31.798Z,5.00
2023-02-27T00:55:58.940Z,4.60
2023-02-27T00:58:26.108Z,5.78
2023-02-27T01:00:53.284Z,4.47
2023-02-27T01:03:20.472Z,5.22
2023-02-27T01:05:47.739Z,5.28
2023-02-27T01:08:14.833Z,5.53
2023-02-27T01:10:41.978Z,5.40
2023-02-27T01:13:11.161Z,5.75
2023-02-27T01:15:38.546Z,5.45
2023-02-27T01:18:05.698Z,5.25
2023-02-27T01:20:32.857Z,6.15
2023-02-27T01:23:00.001Z,5.78
2023-02-27T01:25:27.103Z,5.70
2023-02-27T01:27:54.239Z,5.65
2023-02-27T01:30:21.520Z,6.53
2023-02-27T01:32:48.625Z,5.78
2023-02-27T01:35:15.819Z,5.50
2023-02-27T01:37:42.966Z,6.35
2023-02-27T01:40:10.370Z,5.88
2023-02-27T01:42:38.063Z,6.47
2023-02-27T01:45:11.241Z,5.60
2023-02-27T01:47:44.365Z,6.70
2023-02-27T01:50:12.078Z,7.07
2023-02-27T01:52:40.396Z,6.78
2023-02-27T01:55:08.710Z,6.97
2023-02-27T01:57:36.801Z,6.30
2023-02-27T02:00:05.882Z,6.82
2023-02-27T02:02:38.211Z,7.32
2023-02-27T02:05:07.032Z,6.82
2023-02-27T02:07:35.564Z,6.55
2023-02-27T02:10:03.414Z,6.07
2023-02-27T02:12:34.106Z,6.65
2023-02-27T02:15:01.241Z,6.47
2023-02-27T02:17:51.508Z,7.38
2023-02-27T02:20:27.650Z,5.85
2023-02-27T02:22:54.790Z,6.13
2023-02-27T02:25:40.636Z,6.78
2023-02-27T02:28:25.463Z,6.53
2023-02-27T02:30:52.688Z,6.90
2023-02-27T02:33:22.963Z,6.70
2023-02-27T02:35:53.228Z,5.97
2023-02-27T02:38:20.321Z,6.10
2023-02-27T02:40:54.897Z,6.40
2023-02-27T02:43:27.531Z,6.93
2023-02-27T02:45:54.728Z,7.25
2023-02-27T02:48:40.252Z,6.72
2023-02-27T02:51:07.463Z,7.28
2023-02-27T02:53:49.548Z,6.63
2023-02-27T02:56:16.683Z,7.22
2023-02-27T02:58:49.600Z,6.93
2023-02-27T03:01:18.333Z,6.40
2023-02-27T03:03:49.362Z,6.97
2023-02-27T03:06:31.549Z,7.15
2023-02-27T03:09:11.977Z,7.30
2023-02-27T03:11:41.849Z,7.78
2023-02-27T03:14:11.876Z,6.72
2023-02-27T03:16:41.491Z,7.38
2023-02-27T03:19:12.065Z,7.05
2023-02-27T03:21:41.965Z,7.45
2023-02-27T03:24:11.284Z,7.22
2023-02-27T03:26:40.927Z,6.97
2023-02-27T03:29:09.804Z,6.60
2023-02-27T03:31:49.202Z,6.78
2023-02-27T03:34:30.778Z,6.72
2023-02-27T03:39:32.734Z,7.50
2023-02-27T03:42:32.533Z,7.95
2023-02-27T03:45:08.369Z,6.72
2023-02-27T03:47:35.966Z,7.13
2023-02-27T03:50:03.142Z,6.43
2023-02-27T03:52:30.928Z,6.70
2023-02-27T03:55:00.304Z,6.70
2023-02-27T03:57:27.687Z,6.95
2023-02-27T03:59:55.124Z,7.00
2023-02-27T04:02:23.090Z,6.15
2023-02-27T04:04:50.217Z,6.65
2023-02-27T04:07:24.192Z,7.18
2023-02-27T04:09:51.328Z,6.85
2023-02-27T04:12:38.439Z,6.50
2023-02-27T04:15:14.552Z,6.03
2023-02-27T04:18:01.967Z,6.28
2023-02-27T04:20:42.194Z,6.03
2023-02-27T04:23:21.679Z,7.43
2023-02-27T04:25:52.118Z,6.50
2023-02-27T04:28:19.253Z,6.53
2023-02-27T04:30:58.871Z,6.75
2023-02-27T04:33:30.440Z,7.70
2023-02-27T04:36:00.625Z,6.72
2023-02-27T04:38:52.095Z,6.90
2023-02-27T04:41:24.447Z,7.28
2023-02-27T04:43:52.954Z,6.80
2023-02-27T04:46:22.254Z,6.55
2023-02-27T04:48:53.377Z,6.55
2023-02-27T04:51:26.251Z,6.65
2023-02-27T04:53:57.889Z,6.53
2023-02-27T04:58:59.330Z,6.55
2023-02-27T05:01:37.998Z,6.90
2023-02-27T05:04:05.951Z,6.72
2023-02-27T05:06:35.738Z,6.68
2023-02-27T05:09:23.146Z,6.85
2023-02-27T05:11:54.334Z,6.80
2023-02-27T05:14:41.773Z,6.60
2023-02-27T05:17:18.387Z,6.80
2023-02-27T05:19:46.860Z,6.90
2023-02-27T05:22:36.894Z,7.25
2023-02-27T05:25:09.948Z,7.43
2023-02-27T05:27:42.850Z,7.68
2023-02-27T05:30:13.652Z,7.35
2023-02-27T05:32:43.595Z,6.63
2023-02-27T05:35:29.635Z,7.32
2023-02-27T05:37:59.920Z,7.28
2023-02-27T05:40:30.958Z,8.15
2023-02-27T05:43:00.842Z,7.15
2023-02-27T05:45:29.877Z,7.60
2023-02-27T05:48:00.097Z,7.60
2023-02-27T05:50:28.869Z,7.40
2023-02-27T05:52:57.658Z,6.70
2023-02-27T05:55:34.624Z,8.05
2023-02-27T05:58:16.920Z,7.28
2023-02-27T06:00:46.756Z,8.00
2023-02-27T06:03:14.680Z,8.25
2023-02-27T06:05:42.986Z,7.05
2023-02-27T06:08:10.399Z,8.43
2023-02-27T06:10:37.920Z,7.68
2023-02-27T06:13:05.091Z,11.48
2023-02-27T06:15:32.277Z,8.35
2023-02-27T06:17:59.459Z,8.00
2023-02-27T06:20:26.551Z,7.85
2023-02-27T06:22:53.824Z,7.43
2023-02-27T06:25:22.079Z,7.65
2023-02-27T06:27:49.238Z,8.18
2023-02-27T06:30:16.535Z,8.15
2023-02-27T06:32:43.684Z,7.32
2023-02-27T06:35:10.797Z,8.50
2023-02-27T06:37:37.974Z,8.15
2023-02-27T06:40:05.911Z,7.57
2023-02-27T06:42:33.397Z,8.75
2023-02-27T06:45:00.566Z,9.52
2023-02-27T06:47:27.661Z,8.73
2023-02-27T06:49:54.782Z,7.32
2023-02-27T06:52:21.937Z,7.03
2023-02-27T06:54:49.045Z,8.65
2023-02-27T06:57:16.207Z,7.63
2023-02-27T06:59:45.144Z,7.05
2023-02-27T07:02:13.371Z,8.80
2023-02-27T07:04:40.865Z,7.55
2023-02-27T07:07:36.212Z,7.65
2023-02-27T07:09:55.151Z,8.43
2023-02-27T07:12:22.395Z,8.10
2023-02-27T07:14:49.472Z,7.63
2023-02-27T07:17:16.612Z,7.78
2023-02-27T07:19:43.753Z,7.82
2023-02-27T07:22:10.840Z,8.93
2023-02-27T07:24:38.140Z,8.25
2023-02-27T07:27:05.354Z,9.27
2023-02-27T07:29:32.560Z,7.80
2023-02-27T07:32:01.437Z,8.05
2023-02-27T07:34:28.658Z,8.15
2023-02-27T07:36:55.764Z,7.15
2023-02-27T07:39:23.052Z,7.88
2023-02-27T07:41:50.216Z,8.32
2023-02-27T07:44:17.531Z,7.13
2023-02-27T07:46:45.032Z,7.85
2023-02-27T07:49:12.220Z,8.13
2023-02-27T07:51:39.566Z,9.48
2023-02-27T07:54:06.691Z,8.60
2023-02-27T07:56:34.336Z,7.78
2023-02-27T07:59:01.507Z,7.65
2023-02-27T08:01:28.642Z,7.60
2023-02-27T08:03:56.578Z,9.48
2023-02-27T08:06:24.196Z,8.13
2023-02-27T08:08:51.777Z,7.30
2023-02-27T08:11:18.986Z,8.50
2023-02-27T08:14:02.791Z,8.10
2023-02-27T08:16:31.147Z,7.95
2023-02-27T08:18:58.625Z,8.00
2023-02-27T08:21:26.103Z,7.07
2023-02-27T08:23:53.422Z,7.55
2023-02-27T08:26:21.406Z,7.25
2023-02-27T08:28:48.591Z,6.50
2023-02-27T08:31:15.820Z,8.13
2023-02-27T08:33:42.957Z,7.55
2023-02-27T08:36:10.234Z,7.10
2023-02-27T08:38:37.619Z,7.18
2023-02-27T08:41:04.788Z,7.05
2023-02-27T08:43:32.123Z,6.40
2023-02-27T08:45:59.376Z,7.55
2023-02-27T08:48:26.523Z,7.78
2023-02-27T08:50:55.647Z,7.63
2023-02-27T08:53:23.923Z,6.13
2023-02-27T08:55:51.684Z,7.07
2023-02-27T08:58:19.077Z,5.97
2023-02-27T09:00:46.677Z,6.55
2023-02-27T09:03:13.963Z,6.50
2023-02-27T09:05:41.958Z,5.80
2023-02-27T09:08:09.258Z,6.32
2023-02-27T09:10:37.582Z,5.88
2023-02-27T09:13:05.128Z,5.57
2023-02-27T09:15:34.427Z,5.35
2023-02-27T09:18:03.216Z,6.22
2023-02-27T09:20:36.941Z,7.82
2023-02-27T09:23:04.581Z,6.20
2023-02-27T09:25:32.007Z,5.65
2023-02-27T09:27:59.475Z,5.53
2023-02-27T09:30:26.799Z,4.85
2023-02-27T09:32:54.143Z,5.55
2023-02-27T09:35:21.394Z,5.30
2023-02-27T09:37:49.617Z,5.72
2023-02-27T09:40:25.808Z,5.25
2023-02-27T09:42:54.555Z,5.07
2023-02-27T09:45:23.632Z,5.63
2023-02-27T09:47:54.326Z,5.15
2023-02-27T09:50:40.075Z,5.25
2023-02-27T09:53:12.891Z,4.70
2023-02-27T09:55:40.800Z,5.05
2023-02-27T09:58:14.999Z,5.28
2023-02-27T10:00:48.756Z,4.82
2023-02-27T10:03:15.943Z,4.70
2023-02-27T10:05:50.414Z,4.43
2023-02-27T10:08:17.556Z,4.53
2023-02-27T10:10:50.105Z,5.20
2023-02-27T10:13:20.277Z,4.15
2023-02-27T10:15:52.712Z,3.90
2023-02-27T10:18:28.986Z,4.30
2023-02-27T10:20:59.477Z,3.80
2023-02-27T10:23:38.590Z,3.75
2023-02-27T10:26:05.714Z,3.38
2023-02-27T10:28:33.703Z,3.47
2023-02-27T10:31:02.421Z,3.92
2023-02-27T10:33:35.828Z,3.65
2023-02-27T10:36:03.753Z,3.92
2023-02-27T10:38:34.096Z,3.45
2023-02-27T10:41:01.918Z,3.97
2023-02-27T10:43:29.649Z,4.25
2023-02-27T10:45:56.990Z,3.80
2023-02-27T10:48:24.154Z,3.75
2023-02-27T10:50:52.295Z,3.78
2023-02-27T10:53:19.449Z,4.28
2023-02-27T10:55:49.399Z,4.40
2023-02-27T10:58:20.615Z,3.88
2023-02-27T11:00:55.350Z,3.30
2023-02-27T11:03:29.663Z,3.60
2023-02-27T11:05:58.849Z,3.78
2023-02-27T11:08:27.943Z,3.47
2023-02-27T11:10:56.889Z,3.70
2023-02-27T11:13:25.894Z,3.95
2023-02-27T11:16:11.233Z,4.03
2023-02-27T11:18:39.511Z,4.65
2023-02-27T11:21:09.410Z,3.63
2023-02-27T11:23:36.936Z,4.25
2023-02-27T11:26:18.093Z,4.18
2023-02-27T11:28:45.305Z,3.20
2023-02-27T11:31:17.367Z,4.20
2023-02-27T11:33:52.082Z,4.05
2023-02-27T11:36:19.400Z,4.50
2023-02-27T11:38:56.492Z,3.53
2023-02-27T11:41:36.152Z,3.85
2023-02-27T11:44:05.579Z,3.97
2023-02-27T11:46:47.378Z,3.50
2023-02-27T11:49:18.524Z,4.00
2023-02-27T11:51:45.618Z,3.90
2023-02-27T11:54:15.872Z,4.05
2023-02-27T11:56:53.097Z,3.20
2023-02-27T11:59:26.006Z,3.67
2023-02-27T12:02:01.160Z,3.40
2023-02-27T12:04:28.235Z,4.00
2023-02-27T12:06:59.973Z,3.30
2023-02-27T12:09:51.421Z,4.10
2023-02-27T12:12:21.484Z,3.78
2023-02-27T12:14:58.444Z,3.55
2023-02-27T12:17:37.800Z,3.78
2023-02-27T12:20:11.517Z,3.95
2023-02-27T12:22:41.514Z,3.97
2023-02-27T12:25:14.959Z,3.90
2023-02-27T12:27:56.274Z,3.58
2023-02-27T12:30:26.917Z,4.13
2023-02-27T12:33:10.464Z,3.97
2023-02-27T12:35:37.704Z,4.13
2023-02-27T12:38:07.203Z,4.28
2023-02-27T12:40:39.100Z,4.22
2023-02-27T12:43:06.157Z,4.00
2023-02-27T12:45:52.296Z,3.95
2023-02-27T12:48:19.773Z,4.88
2023-02-27T12:50:49.987Z,4.18
2023-02-27T12:53:32.434Z,4.78
2023-02-27T12:56:04.906Z,4.55
2023-02-27T12:58:38.017Z,4.57
2023-02-27T13:01:14.237Z,6.63
2023-02-27T13:04:20.017Z,5.00
2023-02-27T13:06:50.576Z,4.20
2023-02-27T13:09:21.207Z,4.05
2023-02-27T13:12:11.455Z,4.13
2023-02-27T13:14:48.035Z,4.45
2023-02-27T13:17:21.574Z,4.38
2023-02-27T13:20:07.514Z,4.75
2023-02-27T13:22:45.557Z,4.00
2023-02-27T13:25:14.423Z,4.13
2023-02-27T13:27:47.691Z,4.78
2023-02-27T13:30:17.708Z,4.32
2023-02-27T13:32:53.535Z,3.70
2023-02-27T13:35:29.969Z,4.30
2023-02-27T13:37:57.319Z,4.50
2023-02-27T13:40:38.318Z,4.47
2023-02-27T13:43:24.339Z,4.85
2023-02-27T13:45:52.844Z,4.03
2023-02-27T13:48:35.230Z,4.25
2023-02-27T13:51:02.556Z,3.97
2023-02-27T13:53:30.231Z,4.75
2023-02-27T13:56:19.536Z,4.22
2023-02-27T13:58:46.758Z,3.95
2023-02-27T14:01:18.565Z,3.60
2023-02-27T14:03:53.361Z,3.92
2023-02-27T14:06:20.668Z,3.90
2023-02-27T14:08:49.736Z,4.70
2023-02-27T14:11:19.735Z,4.43
2023-02-27T14:13:54.741Z,3.60
2023-02-27T14:16:40.322Z,3.97
2023-02-27T14:19:16.274Z,3.53
2023-02-27T14:21:57.340Z,3.20
2023-02-27T14:25:01.135Z,3.70
2023-02-27T14:27:44.571Z,3.60
2023-02-27T14:30:30.395Z,3.33
2023-02-27T14:33:03.751Z,4.00
2023-02-27T14:35:31.203Z,3.03
2023-02-27T14:38:09.436Z,3.22
2023-02-27T14:40:39.741Z,3.08
2023-02-27T14:43:21.126Z,3.63
2023-02-27T14:45:49.168Z,3.67
2023-02-27T14:48:25.136Z,3.30
2023-02-27T14:50:53.993Z,3.28
2023-02-27T14:53:27.995Z,3.30
2023-02-27T14:55:59.484Z,3.45
2023-02-27T14:58:27.229Z,3.58
2023-02-27T15:01:08.365Z,3.28
2023-02-27T15:03:52.786Z,3.25
2023-02-27T15:06:21.576Z,3.05
2023-02-27T15:08:50.466Z,3.17
2023-02-27T15:11:18.989Z,2.85
2023-02-27T15:13:47.185Z,3.05
2023-02-27T15:16:34.619Z,2.47
2023-02-27T15:19:04.397Z,3.00
2023-02-27T15:21:34.031Z,2.75
2023-02-27T15:24:02.547Z,3.13
2023-02-27T15:26:30.701Z,2.78
2023-02-27T15:28:59.846Z,2.75
2023-02-27T15:31:30.053Z,2.65
2023-02-27T15:33:57.731Z,2.90
2023-02-27T15:36:27.221Z,2.80
2023-02-27T15:39:06.421Z,2.72
2023-02-27T15:41:33.734Z,2.70
2023-02-27T15:44:01.931Z,2.80
2023-02-27T15:46:29.308Z,3.03
2023-02-27T15:48:56.742Z,3.22
2023-02-27T15:51:26.134Z,2.90
2023-02-27T15:53:56.068Z,2.97
2023-02-27T15:56:27.194Z,2.67
2023-02-27T15:59:00.221Z,2.58
2023-02-27T16:01:29.735Z,2.60
2023-02-27T16:03:59.131Z,3.13
2023-02-27T16:06:28.327Z,2.83
2023-02-27T16:09:00.395Z,2.95
2023-02-27T16:11:32.216Z,3.28
2023-02-27T16:14:00.039Z,3.05
2023-02-27T16:16:35.032Z,2.88
2023-02-27T16:19:20.831Z,2.83
2023-02-27T16:22:07.713Z,3.40
2023-02-27T16:24:35.022Z,3.05
2023-02-27T16:27:02.237Z,3.00
2023-02-27T16:29:35.040Z,3.13
2023-02-27T16:32:02.597Z,3.25
2023-02-27T16:34:46.540Z,3.20
2023-02-27T16:37:18.410Z,3.50
2023-02-27T16:39:45.482Z,3.90
2023-02-27T16:42:12.614Z,3.40
2023-02-27T16:44:39.737Z,3.67
2023-02-27T16:47:06.831Z,3.65
2023-02-27T16:49:33.981Z,3.78
2023-02-27T16:52:05.879Z,3.55
2023-02-27T16:54:32.961Z,3.78
2023-02-27T16:57:00.133Z,3.83
2023-02-27T16:59:34.537Z,4.30
2023-02-27T17:02:03.483Z,4.90
2023-02-27T17:04:30.901Z,4.68
2023-02-27T17:06:59.178Z,4.63
2023-02-27T17:09:29.412Z,4.05
2023-02-27T17:11:57.401Z,5.03
2023-02-27T17:14:25.220Z,5.15
2023-02-27T17:16:52.542Z,4.30
2023-02-27T17:19:21.506Z,5.00
2023-02-27T17:21:48.864Z,4.70
2023-02-27T17:24:16.052Z,5.22
2023-02-27T17:26:43.150Z,6.53
2023-02-27T17:29:10.418Z,5.13
2023-02-27T17:31:37.812Z,5.30
2023-02-27T17:34:05.701Z,5.20
2023-02-27T17:36:32.828Z,5.68
2023-02-27T17:39:01.812Z,5.80
2023-02-27T17:41:29.908Z,5.65
2023-02-27T17:43:57.575Z,5.40
2023-02-27T17:46:27.083Z,5.25
2023-02-27T17:48:56.215Z,5.75
2023-02-27T17:51:23.684Z,5.18
2023-02-27T17:53:50.829Z,5.55
2023-02-27T17:56:17.988Z,5.55
2023-02-27T17:58:45.582Z,5.80
2023-02-27T18:01:19.494Z,5.00
2023-02-27T18:03:46.805Z,5.85
2023-02-27T18:06:14.672Z,5.22
2023-02-27T18:08:41.973Z,5.97
2023-02-27T18:11:10.870Z,6.10
2023-02-27T18:13:38.155Z,5.28
2023-02-27T18:16:05.854Z,5.90
2023-02-27T18:18:34.976Z,6.18
2023-02-27T18:21:03.750Z,6.05
2023-02-27T18:23:31.775Z,5.70
2023-02-27T18:25:59.702Z,5.95
2023-02-27T18:28:27.422Z,6.07
2023-02-27T18:30:54.689Z,6.55
2023-02-27T18:33:23.037Z,6.10
2023-02-27T18:35:50.516Z,6.35
2023-02-27T18:38:18.217Z,6.30
2023-02-27T18:40:45.431Z,6.78
2023-02-27T18:43:13.964Z,6.28
2023-02-27T18:45:41.567Z,6.20
2023-02-27T18:48:08.871Z,6.10
2023-02-27T18:50:36.019Z,5.93
2023-02-27T18:53:03.249Z,6.20
2023-02-27T18:55:30.393Z,5.80
2023-02-27T18:57:57.586Z,5.93
2023-02-27T19:00:24.948Z,5.63
2023-02-27T19:02:52.165Z,5.78
2023-02-27T19:05:19.691Z,6.20
2023-02-27T19:07:46.877Z,5.18
2023-02-27T19:10:15.049Z,6.15
2023-02-27T19:12:42.952Z,5.95
2023-02-27T19:15:10.867Z,6.35
2023-02-27T19:17:38.227Z,5.82
2023-02-27T19:20:06.897Z,7.15
2023-02-27T19:22:34.285Z,6.20
2023-02-27T19:25:01.676Z,6.57
2023-02-27T19:27:28.848Z,6.30
2023-02-27T19:29:56.050Z,6.47
2023-02-27T19:32:23.448Z,5.18
2023-02-27T19:34:50.603Z,5.93
2023-02-27T19:37:17.821Z,5.75
2023-02-27T19:39:44.979Z,5.95
2023-02-27T19:42:12.087Z,6.03
2023-02-27T19:44:40.526Z,5.95
2023-02-27T19:47:07.723Z,6.05
2023-02-27T19:49:38.181Z,6.20
2023-02-27T19:52:05.427Z,5.43
2023-02-27T19:54:33.125Z,6.40
2023-02-27T19:57:00.464Z,5.53
2023-02-27T19:59:27.665Z,5.38
2023-02-27T20:01:54.767Z,5.78
2023-02-27T20:04:22.269Z,5.57
2023-02-27T20:06:52.982Z,3.75
2023-02-27T20:09:23.426Z,5.38
2023-02-27T20:11:53.584Z,5.53
2023-02-27T20:14:20.669Z,6.18
2023-02-27T20:16:47.844Z,5.10
2023-02-27T20:19:16.842Z,5.53
2023-02-27T20:21:44.209Z,5.43
2023-02-27T20:24:11.483Z,5.68
2023-02-27T20:26:40.216Z,5.45
2023-02-27T20:29:08.874Z,5.22
2023-02-27T20:31:37.345Z,5.80
2023-02-27T20:34:06.142Z,5.40
2023-02-27T20:36:34.634Z,5.55
2023-02-27T20:39:02.388Z,5.15
2023-02-27T20:41:30.017Z,5.68
2023-02-27T20:43:57.331Z,5.70
2023-02-27T20:46:26.552Z,5.07
2023-02-27T20:48:53.720Z,5.50
2023-02-27T20:51:22.157Z,5.97
2023-02-27T20:53:50.274Z,6.38
2023-02-27T20:56:20.343Z,5.13
2023-02-27T20:58:47.553Z,5.78
2023-02-27T21:01:15.672Z,6.15
2023-02-27T21:03:43.672Z,5.40
2023-02-27T21:06:12.425Z,6.35
2023-02-27T21:08:40.830Z,5.13
2023-02-27T21:11:09.009Z,6.15
2023-02-27T21:13:36.317Z,6.18
2023-02-27T21:16:07.462Z,6.32
2023-02-27T21:18:34.716Z,6.30
2023-02-27T21:21:05.954Z,6.15
2023-02-27T21:23:34.438Z,5.93
2023-02-27T21:26:01.542Z,5.88
2023-02-27T21:28:28.622Z,5.65
2023-02-27T21:30:55.794Z,6.10
2023-02-27T21:33:23.139Z,6.07
2023-02-27T21:35:50.385Z,5.30
2023-02-27T21:38:17.854Z,6.70
2023-02-27T21:40:45.007Z,5.93
2023-02-27T21:43:12.104Z,5.60
2023-02-27T21:45:43.985Z,5.60
2023-02-27T21:48:11.812Z,5.85
2023-02-27T21:50:38.999Z,5.57
2023-02-27T21:53:06.430Z,5.13
2023-02-27T21:55:34.684Z,6.40
2023-02-27T21:58:04.118Z,5.00
2023-02-27T22:00:31.534Z,4.40
2023-02-27T22:02:58.626Z,4.40
2023-02-27T22:05:25.722Z,5.25
2023-02-27T22:07:52.908Z,4.35
2023-02-27T22:10:20.007Z,4.00
2023-02-27T22:12:47.088Z,4.68
2023-02-27T22:15:14.245Z,4.38
2023-02-27T22:17:41.328Z,4.10
2023-02-27T22:20:09.627Z,4.40
2023-02-27T22:22:36.817Z,4.00
2023-02-27T22:25:04.017Z,3.90
2023-02-27T22:27:31.169Z,4.40
2023-02-27T22:29:58.522Z,3.72
2023-02-27T22:32:25.716Z,4.00
2023-02-27T22:34:52.819Z,3.50
2023-02-27T22:37:19.979Z,4.00
2023-02-27T22:39:47.071Z,4.78
2023-02-27T22:42:14.217Z,4.30
2023-02-27T22:44:41.415Z,4.90
2023-02-27T22:47:09.343Z,4.50
2023-02-27T22:49:37.334Z,4.57
2023-02-27T22:52:04.573Z,5.22
2023-02-27T22:54:31.677Z,4.72
2023-02-27T22:56:58.789Z,4.38
2023-02-27T22:59:26.395Z,4.55
2023-02-27T23:01:54.002Z,4.57
2023-02-27T23:04:22.201Z,4.15
2023-02-27T23:06:51.576Z,4.43
2023-02-27T23:09:21.598Z,4.33
2023-02-27T23:11:48.676Z,4.80
2023-02-27T23:14:16.343Z,4.20
2023-02-27T23:16:46.820Z,4.40
2023-02-27T23:19:14.998Z,4.57
2023-02-27T23:21:42.386Z,4.20
2023-02-27T23:24:11.424Z,4.55
2023-02-27T23:26:39.376Z,4.55
2023-02-27T23:29:07.087Z,4.88
2023-02-27T23:31:35.678Z,4.40
2023-02-27T23:34:05.617Z,4.20
2023-02-27T23:36:33.568Z,4.50
2023-02-27T23:39:02.811Z,4.30
2023-02-27T23:41:30.447Z,4.28
2023-02-27T23:44:16.486Z,4.70
2023-02-27T23:46:43.612Z,4.18
2023-02-27T23:49:11.095Z,4.53
2023-02-27T23:51:38.274Z,4.50
2023-02-27T23:54:05.386Z,4.15
2023-02-27T23:56:32.580Z,4.35
2023-02-27T23:59:04.508Z,4.38
